createdAt,value
2022-11-19T00:00:49.642Z,1.30
2022-11-19T00:03:17.535Z,1.30
2022-11-19T00:05:47.386Z,1.40
2022-11-19T00:08:16.259Z,1.40
2022-11-19T00:10:43.178Z,1.40
2022-11-19T00:13:09.960Z,1.40
2022-11-19T00:15:37.332Z,1.40
2022-11-19T00:18:04.778Z,1.40
2022-11-19T00:20:32.264Z,1.40
2022-11-19T00:22:59.207Z,1.40
2022-11-19T00:25:29.269Z,1.40
2022-11-19T00:27:56.776Z,1.40
2022-11-19T00:30:46.241Z,1.40
2022-11-19T00:33:10.336Z,1.30
2022-11-19T00:35:37.186Z,1.40
2022-11-19T00:38:03.977Z,1.40
2022-11-19T00:40:30.768Z,1.40
2022-11-19T00:43:16.232Z,1.30
2022-11-19T00:45:44.620Z,1.40
2022-11-19T00:48:11.459Z,1.40
2022-11-19T00:50:38.268Z,1.40
2022-11-19T00:53:05.025Z,1.40
2022-11-19T00:55:31.797Z,1.40
2022-11-19T00:57:58.587Z,1.40
2022-11-19T01:00:25.378Z,1.40
2022-11-19T01:02:52.277Z,1.40
2022-11-19T01:05:19.077Z,1.30
2022-11-19T01:07:45.903Z,1.30
2022-11-19T01:10:12.767Z,1.40
2022-11-19T01:12:59.569Z,1.40
2022-11-19T01:15:26.677Z,1.30
2022-11-19T01:17:53.494Z,1.40
2022-11-19T01:20:20.373Z,1.30
2022-11-19T01:22:47.246Z,1.30
2022-11-19T01:25:14.772Z,1.30
2022-11-19T01:27:41.623Z,1.30
2022-11-19T01:30:08.796Z,1.30
2022-11-19T01:32:35.603Z,1.30
2022-11-19T01:35:02.402Z,1.30
2022-11-19T01:37:29.182Z,1.30
2022-11-19T01:39:55.946Z,1.30
2022-11-19T01:42:46.496Z,1.40
2022-11-19T01:45:19.597Z,1.30
2022-11-19T01:47:46.493Z,1.30
2022-11-19T01:50:13.483Z,1.30
2022-11-19T01:52:40.624Z,1.30
2022-11-19T01:55:08.218Z,1.30
2022-11-19T01:57:35.478Z,1.30
2022-11-19T02:00:02.333Z,1.30
2022-11-19T02:02:29.277Z,1.30
2022-11-19T02:04:57.272Z,1.30
2022-11-19T02:07:29.282Z,1.30
2022-11-19T02:09:56.670Z,1.30
2022-11-19T02:12:42.850Z,1.20
2022-11-19T02:15:18.724Z,1.20
2022-11-19T02:18:04.239Z,1.30
2022-11-19T02:20:34.016Z,1.30
2022-11-19T02:23:19.784Z,1.20
2022-11-19T02:25:52.364Z,1.20
2022-11-19T02:28:38.075Z,1.30
2022-11-19T02:31:20.925Z,1.30
2022-11-19T02:33:53.094Z,1.20
2022-11-19T02:36:23.708Z,1.20
2022-11-19T02:38:54.995Z,1.20
2022-11-19T02:41:34.342Z,1.20
2022-11-19T02:44:28.817Z,1.20
2022-11-19T02:46:56.186Z,1.20
2022-11-19T02:49:25.822Z,1.20
2022-11-19T02:51:52.713Z,1.20
2022-11-19T02:54:19.749Z,1.20
2022-11-19T02:56:53.858Z,1.20
2022-11-19T02:59:48.218Z,1.20
2022-11-19T03:02:34.518Z,1.20
2022-11-19T03:05:02.163Z,1.20
2022-11-19T03:07:29.008Z,1.20
2022-11-19T03:09:56.595Z,1.20
2022-11-19T03:12:28.690Z,1.20
2022-11-19T03:15:26.455Z,1.20
2022-11-19T03:17:53.198Z,1.20
2022-11-19T03:20:23.000Z,1.10
2022-11-19T03:22:54.215Z,1.10
2022-11-19T03:25:30.358Z,1.10
2022-11-19T03:28:01.410Z,1.10
2022-11-19T03:30:29.371Z,1.10
2022-11-19T03:33:15.113Z,1.10
2022-11-19T03:35:50.201Z,1.10
2022-11-19T03:38:18.876Z,1.10
2022-11-19T03:40:46.739Z,1.10
2022-11-19T03:43:15.935Z,1.10
2022-11-19T03:45:44.171Z,1.10
2022-11-19T03:48:12.807Z,1.10
2022-11-19T03:50:48.544Z,1.00
2022-11-19T03:53:15.659Z,1.10
2022-11-19T03:56:02.674Z,1.10
2022-11-19T03:58:29.985Z,1.00
2022-11-19T04:00:56.785Z,1.10
2022-11-19T04:03:23.620Z,1.10
2022-11-19T04:05:50.433Z,1.10
2022-11-19T04:08:17.215Z,1.00
2022-11-19T04:10:44.063Z,1.00
2022-11-19T04:13:10.841Z,1.10
2022-11-19T04:15:37.723Z,1.10
2022-11-19T04:18:04.554Z,1.10
2022-11-19T04:20:31.431Z,1.00
2022-11-19T04:22:58.205Z,1.00
2022-11-19T04:25:25.077Z,0.90
2022-11-19T04:27:51.916Z,0.90
2022-11-19T04:30:18.859Z,0.90
2022-11-19T04:32:45.699Z,0.90
2022-11-19T04:35:14.176Z,0.90
2022-11-19T04:37:41.069Z,0.90
2022-11-19T04:40:08.324Z,0.80
2022-11-19T04:42:35.203Z,0.80
2022-11-19T04:45:02.024Z,0.80
2022-11-19T04:47:28.792Z,0.80
2022-11-19T04:49:55.610Z,0.80
2022-11-19T04:52:22.661Z,0.90
2022-11-19T04:54:49.609Z,0.90
2022-11-19T04:57:16.369Z,0.90
2022-11-19T04:59:43.279Z,0.90
2022-11-19T05:02:10.135Z,0.90
2022-11-19T05:04:36.923Z,1.00
2022-11-19T05:07:04.781Z,1.00
2022-11-19T05:09:31.608Z,1.00
2022-11-19T05:11:58.377Z,0.90
2022-11-19T05:14:30.057Z,0.90
2022-11-19T05:16:57.252Z,0.90
2022-11-19T05:19:24.007Z,0.80
2022-11-19T05:21:50.865Z,0.80
2022-11-19T05:24:17.721Z,0.90
2022-11-19T05:26:44.550Z,0.80
2022-11-19T05:29:11.407Z,0.80
2022-11-19T05:31:38.276Z,0.90
2022-11-19T05:34:05.178Z,0.90
2022-11-19T05:36:31.968Z,0.80
2022-11-19T05:38:58.882Z,0.80
2022-11-19T05:41:25.728Z,0.90
2022-11-19T05:43:52.571Z,0.80
2022-11-19T05:46:20.129Z,0.80
2022-11-19T05:48:47.032Z,0.80
2022-11-19T05:51:15.227Z,0.80
2022-11-19T05:53:42.408Z,0.80
2022-11-19T05:56:09.326Z,0.80
2022-11-19T05:58:36.203Z,0.80
2022-11-19T06:01:03.465Z,0.80
2022-11-19T06:03:30.420Z,0.80
2022-11-19T06:05:57.164Z,0.80
2022-11-19T06:08:24.019Z,0.80
2022-11-19T06:10:50.933Z,0.90
2022-11-19T06:13:17.763Z,0.80
2022-11-19T06:15:44.679Z,0.80
2022-11-19T06:18:11.479Z,0.90
2022-11-19T06:20:38.232Z,0.80
2022-11-19T06:23:05.084Z,0.80
2022-11-19T06:25:31.842Z,0.80
2022-11-19T06:27:58.634Z,0.80
2022-11-19T06:30:25.538Z,0.90
2022-11-19T06:32:52.452Z,0.80
2022-11-19T06:35:19.309Z,0.90
2022-11-19T06:37:46.070Z,0.90
2022-11-19T06:40:13.315Z,0.90
2022-11-19T06:42:40.191Z,0.90
2022-11-19T06:45:09.473Z,0.90
2022-11-19T06:47:36.829Z,0.80
2022-11-19T06:50:04.313Z,0.90
2022-11-19T06:52:31.101Z,0.90
2022-11-19T06:54:57.857Z,0.90
2022-11-19T06:57:25.025Z,1.00
2022-11-19T06:59:51.784Z,1.00
2022-11-19T07:02:21.386Z,1.10
2022-11-19T07:04:48.950Z,1.00
2022-11-19T07:07:15.783Z,1.00
2022-11-19T07:09:42.568Z,1.00
2022-11-19T07:12:09.369Z,1.00
2022-11-19T07:14:36.177Z,1.00
2022-11-19T07:17:03.427Z,1.00
2022-11-19T07:19:30.396Z,1.00
2022-11-19T07:21:57.383Z,1.00
2022-11-19T07:24:24.159Z,1.00
2022-11-19T07:26:50.986Z,1.00
2022-11-19T07:29:18.357Z,0.90
2022-11-19T07:31:50.939Z,0.90
2022-11-19T07:34:18.041Z,0.90
2022-11-19T07:36:45.518Z,1.00
2022-11-19T07:39:12.513Z,1.00
2022-11-19T07:41:58.014Z,0.90
2022-11-19T07:44:24.777Z,0.90
2022-11-19T07:46:51.832Z,0.90
2022-11-19T07:49:19.407Z,0.80
2022-11-19T07:51:48.438Z,0.80
2022-11-19T07:54:15.347Z,0.90
2022-11-19T07:56:42.435Z,0.90
2022-11-19T07:59:10.213Z,0.90
2022-11-19T08:01:37.170Z,0.80
2022-11-19T08:04:05.327Z,0.80
2022-11-19T08:06:34.484Z,0.80
2022-11-19T08:09:02.403Z,0.80
2022-11-19T08:11:29.336Z,0.70
2022-11-19T08:13:56.168Z,0.70
2022-11-19T08:16:41.825Z,0.70
2022-11-19T08:19:12.565Z,0.70
2022-11-19T08:21:43.992Z,0.70
2022-11-19T08:24:11.313Z,0.60
2022-11-19T08:26:38.668Z,0.60
2022-11-19T08:29:05.711Z,0.60
2022-11-19T08:31:32.648Z,0.50
2022-11-19T08:34:01.002Z,0.50
2022-11-19T08:36:27.972Z,0.50
2022-11-19T08:39:02.460Z,0.50
2022-11-19T08:41:48.072Z,0.60
2022-11-19T08:44:14.883Z,0.60
2022-11-19T08:46:41.926Z,0.50
2022-11-19T08:49:09.717Z,0.60
2022-11-19T08:51:36.542Z,0.70
2022-11-19T08:54:03.364Z,0.70
2022-11-19T08:56:30.416Z,0.70
2022-11-19T08:59:02.280Z,0.60
2022-11-19T09:01:29.700Z,0.60
2022-11-19T09:03:56.527Z,0.60
2022-11-19T09:06:23.459Z,0.50
2022-11-19T09:08:50.284Z,0.50
2022-11-19T09:11:18.336Z,0.50
2022-11-19T09:13:45.448Z,0.50
2022-11-19T09:16:12.517Z,0.60
2022-11-19T09:18:40.244Z,0.60
2022-11-19T09:21:07.584Z,0.60
2022-11-19T09:23:34.532Z,0.60
2022-11-19T09:26:03.051Z,0.60
2022-11-19T09:28:30.478Z,0.60
2022-11-19T09:31:26.485Z,0.70
2022-11-19T09:33:54.032Z,0.70
2022-11-19T09:36:21.108Z,0.70
2022-11-19T09:38:48.321Z,0.70
2022-11-19T09:41:18.095Z,0.70
2022-11-19T09:44:03.018Z,0.70
2022-11-19T09:46:36.886Z,0.70
2022-11-19T09:49:07.886Z,0.70
2022-11-19T09:51:35.520Z,0.70
2022-11-19T09:54:14.501Z,0.70
2022-11-19T09:56:45.900Z,0.70
2022-11-19T09:59:33.451Z,0.70
2022-11-19T10:02:00.196Z,0.70
2022-11-19T10:04:28.870Z,0.60
2022-11-19T10:07:09.147Z,0.60
2022-11-19T10:09:54.875Z,0.60
2022-11-19T10:12:42.400Z,0.60
2022-11-19T10:15:15.311Z,0.60
2022-11-19T10:17:46.831Z,0.60
2022-11-19T10:20:23.242Z,0.60
2022-11-19T10:23:05.714Z,0.60
2022-11-19T10:25:34.584Z,0.60
2022-11-19T10:28:12.991Z,0.60
2022-11-19T10:30:41.576Z,0.60
2022-11-19T10:33:31.666Z,0.60
2022-11-19T10:36:02.208Z,0.60
2022-11-19T10:38:33.451Z,0.60
2022-11-19T10:41:20.494Z,0.60
2022-11-19T10:43:50.250Z,0.60
2022-11-19T10:46:18.729Z,0.60
2022-11-19T10:48:49.619Z,0.60
2022-11-19T10:51:21.564Z,0.60
2022-11-19T10:53:49.267Z,0.60
2022-11-19T10:56:19.071Z,0.60
2022-11-19T10:58:48.465Z,0.70
2022-11-19T11:01:27.538Z,0.70
2022-11-19T11:04:06.331Z,0.70
2022-11-19T11:07:08.754Z,0.70
2022-11-19T11:09:39.582Z,0.80
2022-11-19T11:12:38.206Z,0.80
2022-11-19T11:15:07.917Z,0.90
2022-11-19T11:17:36.641Z,0.90
2022-11-19T11:20:08.105Z,0.90
2022-11-19T11:22:35.806Z,0.90
2022-11-19T11:25:07.103Z,0.90
2022-11-19T11:27:35.054Z,1.00
2022-11-19T11:30:13.830Z,1.00
2022-11-19T11:32:41.731Z,1.10
2022-11-19T11:35:27.616Z,1.10
2022-11-19T11:37:54.717Z,1.10
2022-11-19T11:40:22.324Z,1.00
2022-11-19T11:42:49.357Z,1.10
2022-11-19T11:45:25.440Z,1.10
2022-11-19T11:47:52.383Z,1.10
2022-11-19T11:50:22.187Z,1.00
2022-11-19T11:52:51.462Z,1.00
2022-11-19T11:55:24.376Z,1.10
2022-11-19T11:57:53.699Z,1.00
2022-11-19T12:00:40.611Z,1.10
2022-11-19T12:03:07.411Z,1.10
2022-11-19T12:05:53.526Z,1.10
2022-11-19T12:08:39.616Z,1.00
2022-11-19T12:11:23.017Z,0.90
2022-11-19T12:13:53.462Z,0.80
2022-11-19T12:16:26.315Z,0.80
2022-11-19T12:19:05.326Z,0.70
2022-11-19T12:21:47.963Z,0.70
2022-11-19T12:24:34.033Z,0.70
2022-11-19T12:27:00.762Z,0.60
2022-11-19T12:29:33.783Z,0.60
2022-11-19T12:32:00.597Z,0.50
2022-11-19T12:34:42.661Z,0.50
2022-11-19T12:37:15.637Z,0.50
2022-11-19T12:39:47.121Z,0.50
2022-11-19T12:42:14.021Z,0.50
2022-11-19T12:44:59.560Z,0.50
2022-11-19T12:47:42.071Z,0.50
2022-11-19T12:50:20.710Z,0.60
2022-11-19T12:52:50.502Z,0.50
2022-11-19T12:55:17.403Z,0.50
2022-11-19T12:57:53.180Z,0.50
2022-11-19T13:00:25.897Z,0.50
2022-11-19T13:03:15.095Z,0.50
2022-11-19T13:05:45.106Z,0.40
2022-11-19T13:08:30.114Z,0.40
2022-11-19T13:10:56.916Z,0.40
2022-11-19T13:13:27.072Z,0.50
2022-11-19T13:15:58.933Z,0.50
2022-11-19T13:18:27.741Z,0.40
2022-11-19T13:20:54.576Z,0.40
2022-11-19T13:23:31.007Z,0.40
2022-11-19T13:26:18.045Z,0.40
2022-11-19T13:29:15.819Z,0.40
2022-11-19T13:31:54.566Z,0.30
2022-11-19T13:34:27.040Z,0.30
2022-11-19T13:37:06.439Z,0.30
2022-11-19T13:39:39.799Z,0.30
2022-11-19T13:42:26.001Z,0.30
2022-11-19T13:44:52.879Z,0.20
2022-11-19T13:47:25.568Z,0.20
2022-11-19T13:50:00.964Z,0.20
2022-11-19T13:52:30.781Z,0.20
2022-11-19T13:54:58.521Z,0.20
2022-11-19T13:57:25.287Z,0.20
2022-11-19T13:59:56.591Z,0.10
2022-11-19T14:02:35.494Z,0.20
2022-11-19T14:05:02.358Z,0.20
2022-11-19T14:07:33.856Z,0.20
2022-11-19T14:10:14.164Z,0.20
2022-11-19T14:12:46.094Z,0.20
2022-11-19T14:15:48.129Z,0.10
2022-11-19T14:18:40.059Z,0.10
2022-11-19T14:21:58.890Z,0.10
2022-11-19T14:24:44.403Z,0.20
2022-11-19T14:27:14.513Z,0.20
2022-11-19T14:29:44.060Z,0.20
2022-11-19T14:32:10.798Z,0.20
2022-11-19T14:34:42.426Z,0.20
2022-11-19T14:37:32.272Z,0.20
2022-11-19T14:40:18.255Z,0.20
2022-11-19T14:43:19.080Z,0.20
2022-11-19T14:46:01.689Z,0.20
2022-11-19T14:48:35.717Z,0.20
2022-11-19T14:51:05.287Z,0.20
2022-11-19T14:53:32.194Z,0.20
2022-11-19T14:56:00.609Z,0.30
2022-11-19T14:58:27.418Z,0.30
2022-11-19T15:01:07.678Z,0.30
2022-11-19T15:03:34.900Z,0.30
2022-11-19T15:06:04.195Z,0.30
2022-11-19T15:08:45.934Z,0.30
2022-11-19T15:11:14.036Z,0.30
2022-11-19T15:13:42.249Z,0.30
2022-11-19T15:16:12.147Z,0.30
2022-11-19T15:18:49.745Z,0.30
2022-11-19T15:21:19.557Z,0.30
2022-11-19T15:23:46.332Z,0.30
2022-11-19T15:26:31.401Z,0.30
2022-11-19T15:29:08.300Z,0.30
2022-11-19T15:31:35.116Z,0.40
2022-11-19T15:34:13.251Z,0.50
2022-11-19T15:36:41.364Z,0.40
2022-11-19T15:39:17.414Z,0.40
2022-11-19T15:42:06.762Z,0.40
2022-11-19T15:44:36.559Z,0.40
2022-11-19T15:47:04.904Z,0.40
2022-11-19T15:49:32.675Z,0.40
2022-11-19T15:52:02.484Z,0.40
2022-11-19T15:54:30.601Z,0.40
2022-11-19T15:57:02.539Z,0.40
2022-11-19T15:59:30.848Z,0.40
2022-11-19T16:01:59.610Z,0.40
2022-11-19T16:04:29.506Z,0.40
2022-11-19T16:06:56.392Z,0.40
2022-11-19T16:09:25.121Z,0.40
2022-11-19T16:12:10.524Z,0.40
2022-11-19T16:14:56.076Z,0.40
2022-11-19T16:17:41.604Z,0.40
2022-11-19T16:20:12.500Z,0.40
2022-11-19T16:22:41.269Z,0.40
2022-11-19T16:25:11.983Z,0.40
2022-11-19T16:27:45.176Z,0.40
2022-11-19T16:30:18.888Z,0.40
2022-11-19T16:32:46.131Z,0.40
2022-11-19T16:35:24.807Z,0.40
2022-11-19T16:37:53.157Z,0.40
2022-11-19T16:40:20.574Z,0.40
2022-11-19T16:42:54.632Z,0.40
2022-11-19T16:45:31.823Z,0.40
2022-11-19T16:47:59.563Z,0.40
2022-11-19T16:50:27.315Z,0.50
2022-11-19T16:52:54.837Z,0.40
2022-11-19T16:55:24.424Z,0.40
2022-11-19T16:57:53.414Z,0.40
2022-11-19T17:00:21.243Z,0.40
2022-11-19T17:02:48.460Z,0.40
2022-11-19T17:05:16.969Z,0.40
2022-11-19T17:07:46.871Z,0.30
2022-11-19T17:10:13.774Z,0.40
2022-11-19T17:12:51.652Z,0.40
2022-11-19T17:15:38.783Z,0.40
2022-11-19T17:18:16.220Z,0.30
2022-11-19T17:20:46.531Z,0.30
2022-11-19T17:23:18.182Z,0.40
2022-11-19T17:25:49.628Z,0.40
2022-11-19T17:28:30.185Z,0.40
2022-11-19T17:30:57.282Z,0.40
2022-11-19T17:33:24.502Z,0.50
2022-11-19T17:35:52.269Z,0.50
2022-11-19T17:38:20.440Z,0.50
2022-11-19T17:40:47.245Z,0.50
2022-11-19T17:43:33.309Z,0.50
2022-11-19T17:46:00.152Z,0.50
2022-11-19T17:48:28.128Z,0.40
2022-11-19T17:50:54.978Z,0.40
2022-11-19T17:53:22.415Z,0.50
2022-11-19T17:55:50.318Z,0.40
2022-11-19T17:58:17.157Z,0.40
2022-11-19T18:00:43.972Z,0.40
2022-11-19T18:03:12.052Z,0.40
2022-11-19T18:05:40.029Z,0.40
2022-11-19T18:08:07.019Z,0.30
2022-11-19T18:10:33.879Z,0.40
2022-11-19T18:13:00.824Z,0.30
2022-11-19T18:15:27.644Z,0.40
2022-11-19T18:17:57.288Z,0.40
2022-11-19T18:20:24.148Z,0.40
2022-11-19T18:22:50.973Z,0.40
2022-11-19T18:25:18.672Z,0.40
2022-11-19T18:27:45.814Z,0.40
2022-11-19T18:30:12.969Z,0.30
2022-11-19T18:32:39.791Z,0.30
2022-11-19T18:35:13.748Z,0.30
2022-11-19T18:37:40.686Z,0.30
2022-11-19T18:40:07.760Z,0.30
2022-11-19T18:42:34.990Z,0.30
2022-11-19T18:45:01.886Z,0.30
2022-11-19T18:47:28.697Z,0.20
2022-11-19T18:49:55.497Z,0.20
2022-11-19T18:52:22.344Z,0.20
2022-11-19T18:54:49.220Z,0.30
2022-11-19T18:57:16.517Z,0.20
2022-11-19T18:59:43.319Z,0.20
2022-11-19T19:02:10.475Z,0.10
2022-11-19T19:04:37.492Z,0.10
2022-11-19T19:07:04.375Z,0.10
2022-11-19T19:09:31.285Z,0.10
2022-11-19T19:12:16.526Z,0.10
2022-11-19T19:14:43.937Z,0.10
2022-11-19T19:17:11.454Z,0.10
2022-11-19T19:19:38.880Z,0.10
2022-11-19T19:22:05.923Z,0.10
2022-11-19T19:24:32.846Z,0.10
2022-11-19T19:27:00.088Z,0.20
2022-11-19T19:29:26.992Z,0.20
2022-11-19T19:31:53.786Z,0.10
2022-11-19T19:34:20.588Z,0.20
2022-11-19T19:36:52.700Z,0.20
2022-11-19T19:39:20.458Z,0.10
2022-11-19T19:41:49.208Z,0.20
2022-11-19T19:44:16.186Z,0.10
2022-11-19T19:46:42.997Z,0.20
2022-11-19T19:49:09.819Z,0.10
2022-11-19T19:51:36.579Z,0.10
2022-11-19T19:54:03.506Z,0.20
2022-11-19T19:56:31.513Z,0.20
2022-11-19T19:58:58.736Z,0.20
2022-11-19T20:01:27.024Z,0.10
2022-11-19T20:03:55.039Z,0.20
2022-11-19T20:06:22.951Z,0.30
2022-11-19T20:08:49.862Z,0.20
2022-11-19T20:11:20.601Z,0.20
2022-11-19T20:13:47.762Z,0.20
2022-11-19T20:16:18.814Z,0.20
2022-11-19T20:18:46.311Z,0.20
2022-11-19T20:21:14.159Z,0.20
2022-11-19T20:23:41.646Z,0.20
2022-11-19T20:26:11.178Z,0.20
2022-11-19T20:28:38.664Z,0.20
2022-11-19T20:31:19.306Z,0.20
2022-11-19T20:33:47.275Z,0.20
2022-11-19T20:36:15.640Z,0.20
2022-11-19T20:38:43.652Z,0.20
2022-11-19T20:41:29.811Z,0.20
2022-11-19T20:44:15.657Z,0.20
2022-11-19T20:46:42.599Z,0.20
2022-11-19T20:49:12.794Z,0.20
2022-11-19T20:51:42.531Z,0.20
2022-11-19T20:54:09.568Z,0.30
2022-11-19T20:56:36.916Z,0.20
2022-11-19T20:59:04.614Z,0.20
2022-11-19T21:01:31.994Z,0.30
2022-11-19T21:03:59.244Z,0.20
2022-11-19T21:06:26.115Z,0.20
2022-11-19T21:08:53.211Z,0.20
2022-11-19T21:11:20.231Z,0.20
2022-11-19T21:13:47.087Z,0.20
2022-11-19T21:16:15.458Z,0.20
2022-11-19T21:18:42.818Z,0.20
2022-11-19T21:21:10.785Z,0.20
2022-11-19T21:23:38.299Z,0.20
2022-11-19T21:26:10.016Z,0.10
2022-11-19T21:28:37.479Z,0.20
2022-11-19T21:31:04.867Z,0.10
2022-11-19T21:33:32.077Z,0.10
2022-11-19T21:35:59.472Z,0.10
2022-11-19T21:38:26.337Z,0.10
2022-11-19T21:40:54.557Z,0.10
2022-11-19T21:43:22.362Z,0.10
2022-11-19T21:45:49.369Z,0.10
2022-11-19T21:48:16.565Z,0.10
2022-11-19T21:50:43.367Z,0.10
2022-11-19T21:53:10.625Z,0.10
2022-11-19T21:55:37.639Z,0.10
2022-11-19T21:58:05.035Z,0.10
2022-11-19T22:00:32.283Z,0.10
2022-11-19T22:02:59.130Z,0.10
2022-11-19T22:05:26.162Z,0.10
2022-11-19T22:07:54.253Z,0.10
2022-11-19T22:10:21.239Z,0.10
2022-11-19T22:12:48.024Z,0.10
2022-11-19T22:15:14.869Z,0.10
2022-11-19T22:17:41.733Z,0.10
2022-11-19T22:20:08.706Z,0.10
2022-11-19T22:22:35.576Z,0.10
2022-11-19T22:25:02.416Z,0.10
2022-11-19T22:27:29.601Z,0.10
2022-11-19T22:29:56.785Z,0.10
2022-11-19T22:32:23.673Z,0.10
2022-11-19T22:34:50.466Z,0.10
2022-11-19T22:37:17.299Z,0.10
2022-11-19T22:39:44.114Z,0.00
2022-11-19T22:42:10.990Z,0.10
2022-11-19T22:44:37.850Z,0.00
2022-11-19T22:47:04.611Z,0.10
2022-11-19T22:49:31.434Z,0.10
2022-11-19T22:51:58.270Z,0.00
2022-11-19T22:54:25.231Z,0.00
2022-11-19T22:56:52.269Z,0.10
2022-11-19T22:59:19.418Z,0.10
2022-11-19T23:01:46.407Z,0.00
2022-11-19T23:04:14.161Z,0.00
2022-11-19T23:06:41.033Z,0.00
2022-11-19T23:09:08.192Z,-0.10
2022-11-19T23:11:53.430Z,0.00
2022-11-19T23:14:20.285Z,-0.10
2022-11-19T23:16:47.070Z,-0.10
2022-11-19T23:19:14.126Z,-0.10
2022-11-19T23:21:40.937Z,-0.10
2022-11-19T23:24:08.113Z,-0.10
2022-11-19T23:26:34.948Z,0.00
2022-11-19T23:29:01.841Z,0.00
2022-11-19T23:31:29.782Z,-0.10
2022-11-19T23:33:59.219Z,-0.10
2022-11-19T23:36:27.552Z,-0.10
2022-11-19T23:38:54.546Z,-0.10
2022-11-19T23:41:21.829Z,-0.10
2022-11-19T23:43:49.063Z,-0.10
2022-11-19T23:46:20.095Z,0.00
2022-11-19T23:48:47.754Z,0.00
2022-11-19T23:51:19.099Z,-0.10
2022-11-19T23:53:46.222Z,0.00
2022-11-19T23:56:13.717Z,0.00
2022-11-19T23:58:40.815Z,0.00
